Airfield :
LOGIN :

Register | Disclaimer

   EN    FR    IT 

 










Legend :    VFR   Marginal VFR   IFR   Intensive IFR   Very Intensive IFR
Visi :
Ceiling :
>= 8 km
>= 3000ft
5 to 8 km
1000 to 3000 ft
1500m to 5 km
500 to 1000 ft
800 to 1500m
200 to 500 ft
< 800m
< 200 ft
Symbols :   Thunderstorms  Fog  Heavy snow  Heavy precipitations  Wind > 20 kt
SIGMETs :     Misc.  Thunderstorms  Icing  Turbulence  Mountain Waves  Volcanic Ashes







- Airport Elevation : 16 ft
- IATA code : SDR


LEXJ - Santander Cantabria

CURRENT METAR :
  • 261230Z 22004KT 190V250 9999 SCT060 15/04 Q1013

EXPIRED METARs :
  • 261200Z 20007KT 150V260 9999 SCT060 16/05 Q1013
  • 261130Z 21008KT 160V260 9999 FEW065 15/04 Q1013
  • 261100Z 21011KT 170V250 9999 FEW057 16/04 Q1013
  • 261030Z 21012KT 160V250 9999 FEW057 15/04 Q1013
  • 261000Z 20012KT 160V240 9999 FEW057 15/03 Q1013

TAF TAF LEXJ
Valid from the 26 at 09:00 until the 27 at 09:00 UTC


260800Z 2609/2709 16009KT 9999 FEW060 TX18/2615Z TN11/2706Z
TEMPO 2609/2614 20015G25KT
PROB30
TEMPO 2611/2618 FEW030TCU
TEMPO 2706/2709 20015G25KT
No reported NOTAMs for that airfield.
1 SIGMET reported for the Madrid FIR (LECM) :
 
Severe turbulence
LECM SIGMET 5 VALID 261200/261600 LEVA
LECM MADRID FIR/UIR SEV TURB FCST WI N4230 W01130 - N45 W010 - N4340 W00150 - N4330 W00810 - N42 W00930 FL230/300 MOV N 10KT WKN=



MET'MAP, your aeronautical weather chart ! - Copyright ORBIFLY December 2007 - Disclaimer

ORBIFLY MET'MAP TEAM :

Programming & Development : Alexandra Zaïnal
Concept & Development : Baudouin d'Aumeries
Co-Development & Prog : Marc-Olivier Méhu
Technical & hardware support : Manuel Goepfert

Contact : metmap@orbifly.com




SOURCES & CREDITS :

   NOAA